Aurora, Oregon
Current Conditions -  °F | °C
As of 8:53 AM on Saturday 22 Nov 2014 (Local Time) from KUAO Reporting Station
Light Rain Light Rain  
Wind Chill: 44°   Ceiling: 4000
Heat Index: 47°   Visibility: 7mi
Dew Point: 46°   Wind: 6mph
Humidity: 97%   Direction: 230°SW
Pressure: 29.84"   Gusts: NA
Location:  45.23°N, 122.76°W
Report Text: KUAO 221653Z AUTO 23005KT 7SM -RA FEW032 BKN040 OVC100 08/08 A2984 RMK AO2 RAB52 SLP107 P0001 T00830078
Loading
Personal Weather Stations






























Interactive Weather Map New forecast layout! Learn more

10-Day Weather Forecast

Advertisements
Track Severe Weather on mobile